Dades meteomassalio
Diari Summary for Maig 6, 2017 Units:  English    Metric   Both
« Previous Day
Next Day »
Diari Semanal Mensual Anual Personalitzat
  Maxima: Minima: Mijana:
Temperatura: TemperatureC °F 12.5 °F 18 °F
Rosada: DewpointC °F 1.1 °F 5.6 °F
Humitat: Humidity % 22 % 48 %
Velocitat del vent: WindSpeedKMH mph 0.0 mph 17.3 mph
Racha vent: WindSpeedGustKMH mph - -
Vent:- - WNW
Pressio: PressurehPa in 1008.7 in -
Pluja: 0.5 in    
Historical Graphs
 
 
Tabular Data for Maig 6, 2017
Time Temperature Dew Point Pressure Wind Wind Speed Wind Gust Humidity Rainfall Rate (Hourly) solar Conditions
TemperatureC °F DewpointC °F PressurehPa in Calm     Humidity % HourlyPrecipMM in SolarRadiationWatts/m^2 W/m2 Conditions
00:04 14.9 °F 11.2 °F 1008.7 in Calm     78 % 0.0 in 0.0 W/m2 CLR
00:09 14.8 °F 11.2 °F 1009.0 in Calm     79 % 0.0 in 0.0 W/m2 CLR
00:14 14.6 °F 11.0 °F 1009.4 in NW 9.7 mph 9.7 mph 79 % 0.0 in 0.0 W/m2 CLR
00:19 14.6 °F 11.2 °F 1009.4 in WNW 7.4 mph 7.4 mph 80 % 0.0 in 0.0 W/m2 CLR
00:24 14.5 °F 11.1 °F 1009.4 in Calm     80 % 0.0 in 0.0 W/m2 CLR
00:29 14.3 °F 10.9 °F 1009.4 in Calm     80 % 0.0 in 0.0 W/m2 CLR
00:34 14.3 °F 10.9 °F 1009.4 in Calm     80 % 0.0 in 0.0 W/m2 CLR
00:39 14.7 °F 11.7 °F 1009.4 in WSW 16.1 mph 16.1 mph 82 % 0.0 in 0.0 W/m2 CLR
00:44 15.5 °F 12.1 °F 1009.7 in WSW 16.7 mph 16.7 mph 80 % 0.0 in 0.0 W/m2 CLR
00:49 15.7 °F 12.1 °F 1009.7 in West 20.4 mph 20.4 mph 79 % 0.0 in 0.0 W/m2 CLR
00:54 15.8 °F 12.2 °F 1009.7 in West 9.3 mph 9.3 mph 79 % 0.0 in 0.0 W/m2 CLR
00:59 15.8 °F 11.9 °F 1009.7 in West 5.6 mph 5.6 mph 78 % 0.0 in 0.0 W/m2 CLR
01:04 15.8 °F 11.9 °F 1009.7 in Calm     78 % 0.0 in 0.0 W/m2 CLR
01:09 15.8 °F 12.0 °F 1010.0 in Calm     78 % 0.0 in 0.0 W/m2 CLR
01:14 15.8 °F 12.0 °F 1010.0 in Calm     78 % 0.0 in 0.0 W/m2 CLR
01:20 15.8 °F 12.0 °F 1010.0 in Calm     78 % 0.0 in 0.0 W/m2 CLR
01:25 15.8 °F 11.9 °F 1010.0 in Calm     78 % 0.0 in 0.0 W/m2 CLR
01:30 15.8 °F 11.9 °F 1010.4 in Calm     78 % 0.0 in 0.0 W/m2 CLR
01:35 15.8 °F 11.9 °F 1010.4 in Calm     78 % 0.0 in 0.0 W/m2 CLR
01:40 15.8 °F 12.0 °F 1010.4 in Calm     78 % 0.0 in 0.0 W/m2 CLR
01:45 15.8 °F 12.0 °F 1010.4 in Calm     78 % 0.0 in 0.0 W/m2 CLR
01:50 15.8 °F 12.0 °F 1010.7 in Calm     78 % 0.0 in 0.0 W/m2 CLR
01:55 16.0 °F 12.2 °F 1010.7 in WNW 11.1 mph 11.1 mph 78 % 0.0 in 0.0 W/m2 CLR
02:00 16.2 °F 12.1 °F 1010.7 in WNW 11.1 mph 11.1 mph 77 % 0.0 in 0.0 W/m2 CLR
02:05 16.2 °F 12.1 °F 1010.7 in NW 9.3 mph 9.3 mph 77 % 0.0 in 0.0 W/m2 CLR
02:10 16.1 °F 12.1 °F 1011.1 in WNW 16.7 mph 16.7 mph 77 % 0.0 in 0.0 W/m2 CLR
02:15 16.0 °F 11.9 °F 1011.1 in WNW 14.8 mph 14.8 mph 77 % 0.0 in 0.0 W/m2 CLR
02:20 15.9 °F 12.1 °F 1011.1 in WNW 22.5 mph 22.5 mph 78 % 0.0 in 0.0 W/m2 CLR
02:25 15.8 °F 11.9 °F 1011.1 in WNW 18.5 mph 18.5 mph 78 % 0.0 in 0.0 W/m2 CLR
02:30 15.7 °F 11.5 °F 1011.4 in WNW 20.4 mph 20.4 mph 76 % 0.0 in 0.0 W/m2 CLR
02:35 15.7 °F 10.7 °F 1011.1 in NW 35.4 mph 35.4 mph 72 % 0.0 in 0.0 W/m2 CLR
02:40 15.5 °F 10.7 °F 1011.4 in NNW 38.6 mph 38.6 mph 73 % 0.0 in 0.0 W/m2 CLR
02:45 14.9 °F 10.6 °F 1012.1 in NW 25.9 mph 25.9 mph 75 % 0.5 in 0.0 W/m2 RA
02:50 14.8 °F 10.2 °F 1011.7 in NW 33.3 mph 33.3 mph 74 % 0.5 in 0.0 W/m2 CLR
02:55 14.7 °F 10.3 °F 1012.1 in NW 33.8 mph 33.8 mph 75 % 0.5 in 0.0 W/m2 CLR
03:00 14.6 °F 10.2 °F 1012.1 in WNW 25.9 mph 25.9 mph 75 % 0.5 in 0.0 W/m2 CLR
03:05 14.5 °F 10.3 °F 1012.1 in NW 24.1 mph 24.1 mph 76 % 0.5 in 0.0 W/m2 CLR
03:10 14.4 °F 10.2 °F 1012.4 in NW 24.1 mph 24.1 mph 76 % 0.5 in 0.0 W/m2 CLR
03:15 14.3 °F 10.3 °F 1012.4 in NW 20.9 mph 20.9 mph 77 % 0.5 in 0.0 W/m2 CLR
03:20 14.2 °F 10.2 °F 1012.4 in WNW 18.5 mph 18.5 mph 77 % 0.5 in 0.0 W/m2 CLR
03:25 14.1 °F 10.1 °F 1012.4 in WNW 16.7 mph 16.7 mph 77 % 0.5 in 0.0 W/m2 CLR
03:30 14.1 °F 10.1 °F 1012.4 in WNW 18.5 mph 18.5 mph 77 % 0.5 in 0.0 W/m2 CLR
03:35 14.1 °F 9.9 °F 1012.4 in WNW 18.5 mph 18.5 mph 76 % 0.5 in 0.0 W/m2 CLR
03:40 14.1 °F 9.9 °F 1012.4 in West 18.5 mph 18.5 mph 76 % 0.0 in 0.0 W/m2 CLR
03:45 14.0 °F 9.8 °F 1012.4 in NW 11.1 mph 11.1 mph 76 % 0.0 in 0.0 W/m2 CLR
03:50 13.9 °F 9.6 °F 1012.8 in WNW 9.3 mph 9.3 mph 75 % 0.0 in 0.0 W/m2 CLR
03:55 13.9 °F 9.4 °F 1012.4 in WNW 13.0 mph 13.0 mph 74 % 0.0 in 0.0 W/m2 CLR
04:00 13.9 °F 9.4 °F 1012.8 in Calm     74 % 0.0 in 0.0 W/m2 CLR
04:05 13.8 °F 9.1 °F 1012.4 in WNW 18.5 mph 18.5 mph 73 % 0.0 in 0.0 W/m2 CLR
04:10 13.9 °F 8.9 °F 1012.4 in NW 16.7 mph 16.7 mph 72 % 0.0 in 0.0 W/m2 CLR
04:15 13.8 °F 8.8 °F 1012.4 in Calm     72 % 0.0 in 0.0 W/m2 CLR
04:20 13.7 °F 8.8 °F 1012.4 in Calm     72 % 0.0 in 0.0 W/m2 CLR
04:25 13.6 °F 8.7 °F 1012.4 in West 14.5 mph 14.5 mph 72 % 0.0 in 0.0 W/m2 CLR
04:30 13.7 °F 8.5 °F 1012.1 in West 14.5 mph 14.5 mph 71 % 0.0 in 0.0 W/m2 CLR
04:35 13.7 °F 8.3 °F 1012.1 in West 14.8 mph 14.8 mph 70 % 0.0 in 0.0 W/m2 CLR
04:40 13.6 °F 8.2 °F 1012.1 in West 11.1 mph 11.1 mph 70 % 0.0 in 0.0 W/m2 CLR
04:45 13.6 °F 8.2 °F 1011.7 in West 11.1 mph 11.1 mph 70 % 0.0 in 0.0 W/m2 CLR
04:50 13.4 °F 8.1 °F 1011.7 in WSW 12.9 mph 12.9 mph 70 % 0.0 in 0.0 W/m2 CLR
04:55 13.3 °F 8.0 °F 1012.1 in West 11.3 mph 11.3 mph 70 % 0.0 in 0.0 W/m2 CLR
04:56 13.3 °F 8.0 °F 1012.1 in West 11.1 mph 11.1 mph 70 % 0.0 in 0.0 W/m2 CLR
05:01 13.4 °F 8.0 °F 1012.1 in WNW 13.0 mph 13.0 mph 70 % 0.0 in 0.0 W/m2 CLR
05:06 13.4 °F 8.0 °F 1012.4 in WNW 9.3 mph 9.3 mph 70 % 0.0 in 0.0 W/m2 CLR
05:11 13.3 °F 7.9 °F 1012.4 in NW 11.3 mph 11.3 mph 70 % 0.0 in 0.0 W/m2 CLR
05:16 12.8 °F 7.9 °F 1012.4 in West 9.3 mph 9.3 mph 72 % 0.0 in 0.0 W/m2 CLR
05:21 12.9 °F 7.9 °F 1012.4 in West 13.0 mph 13.0 mph 72 % 0.0 in 0.0 W/m2 CLR
05:26 12.9 °F 7.8 °F 1012.4 in Calm     71 % 0.0 in 0.0 W/m2 CLR
05:28 12.9 °F 7.8 °F 1012.4 in Calm     71 % 0.0 in 0.0 W/m2 CLR
05:33 12.8 °F 7.8 °F 1012.4 in Calm     72 % 0.0 in 0.0 W/m2 CLR
05:38 12.5 °F 7.6 °F 1012.4 in Calm     72 % 0.0 in 0.0 W/m2 CLR
05:43 12.6 °F 7.4 °F 1012.4 in WNW 14.8 mph 14.8 mph 71 % 0.0 in 0.0 W/m2 CLR
05:48 12.7 °F 7.3 °F 1012.4 in WNW 11.1 mph 11.1 mph 70 % 0.0 in 0.0 W/m2 CLR
05:53 12.7 °F 7.3 °F 1012.8 in West 13.0 mph 13.0 mph 70 % 0.0 in 0.0 W/m2 CLR
05:58 12.9 °F 7.1 °F 1012.8 in WNW 14.8 mph 14.8 mph 68 % 0.0 in 0.0 W/m2 CLR
06:03 13.0 °F 7.0 °F 1012.8 in West 16.7 mph 16.7 mph 67 % 0.0 in 0.0 W/m2 CLR
06:08 13.1 °F 6.9 °F 1012.8 in West 18.5 mph 18.5 mph 66 % 0.0 in 0.0 W/m2 CLR
06:13 13.1 °F 6.9 °F 1013.1 in WNW 19.3 mph 19.3 mph 66 % 0.0 in 0.0 W/m2 CLR
06:18 13.1 °F 6.9 °F 1013.1 in WNW 18.5 mph 18.5 mph 66 % 0.0 in 0.0 W/m2 CLR
06:23 12.9 °F 6.9 °F 1013.1 in WNW 18.5 mph 18.5 mph 67 % 0.0 in 0.0 W/m2 CLR
06:28 12.9 °F 6.9 °F 1013.1 in WNW 18.5 mph 18.5 mph 67 % 0.0 in 0.0 W/m2 CLR
06:33 13.0 °F 7.0 °F 1013.1 in West 22.2 mph 22.2 mph 67 % 0.0 in 0.0 W/m2 CLR
06:38 13.3 °F 7.1 °F 1013.1 in WNW 18.5 mph 18.5 mph 66 % 0.0 in 0.0 W/m2 CLR
06:43 13.3 °F 7.1 °F 1013.4 in West 16.7 mph 16.7 mph 66 % 0.0 in 0.0 W/m2 OVC
06:48 13.3 °F 7.1 °F 1013.4 in WNW 18.5 mph 18.5 mph 66 % 0.0 in 0.0 W/m2 OVC
06:53 13.2 °F 6.9 °F 1013.4 in WNW 16.7 mph 16.7 mph 66 % 0.0 in 5.0 W/m2 OVC
06:58 12.9 °F 6.9 °F 1013.8 in WNW 14.8 mph 14.8 mph 67 % 0.0 in 7.0 W/m2 BKN
07:03 12.8 °F 7.0 °F 1013.4 in WNW 14.8 mph 14.8 mph 68 % 0.0 in 9.0 W/m2 BKN
07:08 12.7 °F 7.2 °F 1013.8 in WNW 14.8 mph 14.8 mph 69 % 0.0 in 12.0 W/m2 BKN
07:13 12.7 °F 7.1 °F 1013.8 in WNW 13.0 mph 13.0 mph 69 % 0.0 in 12.0 W/m2 BKN
07:18 12.7 °F 7.1 °F 1013.8 in WNW 11.3 mph 11.3 mph 69 % 0.0 in 16.0 W/m2 BKN
07:23 12.6 °F 7.1 °F 1013.8 in WNW 11.3 mph 11.3 mph 69 % 0.0 in 19.0 W/m2 BKN
07:28 12.8 °F 7.2 °F 1013.8 in West 13.0 mph 13.0 mph 69 % 0.0 in 28.0 W/m2 BKN
07:30 12.8 °F 7.1 °F 1013.8 in West 13.0 mph 13.0 mph 68 % 0.0 in 35.0 W/m2 BKN
07:35 13.1 °F 7.3 °F 1013.8 in West 11.1 mph 11.1 mph 68 % 0.0 in 33.0 W/m2 BKN
07:40 13.2 °F 7.2 °F 1014.1 in West 5.6 mph 5.6 mph 67 % 0.0 in 56.0 W/m2 SCT
07:45 13.4 °F 7.4 °F 1014.1 in West 5.6 mph 5.6 mph 67 % 0.0 in 72.0 W/m2 FEW
07:50 13.4 °F 7.4 °F 1014.1 in West 3.2 mph 3.2 mph 67 % 0.0 in 86.0 W/m2 CLR
07:55 13.4 °F 7.4 °F 1014.1 in Calm     67 % 0.0 in 104.0 W/m2 CLR
08:00 13.4 °F 7.4 °F 1014.1 in Calm     67 % 0.0 in 120.0 W/m2 CLR
08:01 13.4 °F 7.4 °F 1014.1 in SW 7.4 mph 7.4 mph 67 % 0.0 in 123.0 W/m2 CLR
08:06 13.5 °F 7.3 °F 1014.4 in WSW 5.6 mph 5.6 mph 66 % 0.0 in 141.0 W/m2 CLR
08:11 13.6 °F 7.4 °F 1014.4 in WSW 5.6 mph 5.6 mph 66 % 0.0 in 158.0 W/m2 CLR
08:16 13.7 °F 7.5 °F 1014.4 in SW 1.9 mph   66 % 0.0 in 181.0 W/m2 CLR
08:21 13.9 °F 7.4 °F 1014.4 in West 9.3 mph 9.3 mph 65 % 0.3 in 199.0 W/m2 RA
08:26 14.2 °F 7.5 °F 1014.4 in West 13.0 mph 13.0 mph 64 % 0.3 in 216.0 W/m2 CLR
08:31 14.4 °F 7.4 °F 1014.4 in WNW 13.0 mph 13.0 mph 63 % 0.3 in 236.0 W/m2 CLR
08:36 14.6 °F 7.7 °F 1014.4 in WSW 22.2 mph 22.2 mph 63 % 0.3 in 255.0 W/m2 CLR
08:41 14.7 °F 7.4 °F 1014.4 in NW 24.1 mph 24.1 mph 62 % 0.3 in 271.0 W/m2 CLR
08:46 14.7 °F 7.5 °F 1014.4 in NW 14.8 mph 14.8 mph 62 % 0.3 in 287.0 W/m2 CLR
08:51 14.9 °F 7.7 °F 1014.4 in NNW 20.4 mph 20.4 mph 62 % 0.3 in 302.0 W/m2 CLR
08:56 15.0 °F 7.6 °F 1014.4 in WNW 24.1 mph 24.1 mph 61 % 0.3 in 322.0 W/m2 CLR
09:01 15.2 °F 7.7 °F 1014.4 in WNW 19.3 mph 19.3 mph 61 % 0.3 in 338.0 W/m2 CLR
09:06 15.2 °F 7.5 °F 1014.4 in NW 22.2 mph 22.2 mph 60 % 0.3 in 352.0 W/m2 CLR
09:11 15.4 °F 7.4 °F 1014.4 in NW 33.3 mph 33.3 mph 59 % 0.3 in 369.0 W/m2 CLR
09:16 15.6 °F 7.1 °F 1014.8 in NNW 42.6 mph 42.6 mph 57 % 0.3 in 388.0 W/m2 CLR
09:21 15.7 °F 7.5 °F 1014.8 in WNW 27.8 mph 27.8 mph 58 % 0.0 in 404.0 W/m2 CLR
09:26 15.9 °F 7.2 °F 1014.8 in West 35.2 mph 35.2 mph 56 % 0.0 in 422.0 W/m2 CLR
09:31 16.2 °F 6.6 °F 1014.8 in NW 48.1 mph 48.1 mph 53 % 0.0 in 95.0 W/m2 CLR
09:36 16.3 °F 6.7 °F 1014.8 in NW 37.0 mph 37.0 mph 53 % 0.0 in 148.0 W/m2 CLR
09:41 16.3 °F 6.7 °F 1014.8 in NW 42.6 mph 42.6 mph 53 % 0.0 in 473.0 W/m2 CLR
09:46 16.3 °F 6.7 °F 1014.8 in WNW 40.7 mph 40.7 mph 53 % 0.0 in 489.0 W/m2 CLR
09:51 16.4 °F 6.8 °F 1014.8 in WNW 42.6 mph 42.6 mph 53 % 0.0 in 503.0 W/m2 CLR
09:56 16.5 °F 7.2 °F 1014.8 in NW 25.9 mph 25.9 mph 54 % 0.0 in 519.0 W/m2 CLR
10:01 16.7 °F 6.5 °F 1014.8 in NW 46.3 mph 46.3 mph 51 % 0.0 in 538.0 W/m2 CLR
10:06 16.7 °F 6.5 °F 1015.1 in WNW 40.7 mph 40.7 mph 51 % 0.0 in 552.0 W/m2 CLR
10:11 16.8 °F 6.6 °F 1015.1 in NNW 40.7 mph 40.7 mph 51 % 0.0 in 564.0 W/m2 CLR
10:16 17.0 °F 6.8 °F 1015.1 in West 33.3 mph 33.3 mph 51 % 0.0 in 578.0 W/m2 CLR
10:21 17.1 °F 6.9 °F 1015.1 in NW 38.9 mph 38.9 mph 51 % 0.0 in 591.0 W/m2 CLR
10:26 17.3 °F 6.4 °F 1015.1 in NW 45.1 mph 45.1 mph 49 % 0.0 in 610.0 W/m2 CLR
10:31 17.4 °F 6.3 °F 1015.5 in WNW 44.4 mph 44.4 mph 48 % 0.0 in 621.0 W/m2 CLR
10:36 17.6 °F 6.4 °F 1015.1 in NW 38.9 mph 38.9 mph 48 % 0.0 in 640.0 W/m2 CLR
10:41 18.0 °F 5.6 °F 1015.1 in NW 31.5 mph 31.5 mph 44 % 0.0 in 650.0 W/m2 CLR
10:46 18.1 °F 5.3 °F 1015.5 in WNW 35.2 mph 35.2 mph 43 % 0.0 in 670.0 W/m2 CLR
10:51 18.1 °F 4.9 °F 1015.5 in NNW 38.9 mph 38.9 mph 42 % 0.0 in 684.0 W/m2 CLR
10:56 18.1 °F 5.0 °F 1015.5 in WNW 40.2 mph 40.2 mph 42 % 0.0 in 691.0 W/m2 CLR
11:01 18.3 °F 4.4 °F 1015.5 in NW 40.7 mph 40.7 mph 40 % 0.0 in 705.0 W/m2 CLR
11:06 18.3 °F 4.4 °F 1015.5 in NW 46.3 mph 46.3 mph 40 % 0.0 in 717.0 W/m2 CLR
11:11 18.4 °F 4.9 °F 1015.8 in WNW 31.5 mph 31.5 mph 41 % 0.0 in 729.0 W/m2 CLR
11:16 18.3 °F 4.5 °F 1015.8 in WNW 48.1 mph 48.1 mph 40 % 0.0 in 744.0 W/m2 CLR
11:21 18.2 °F 4.4 °F 1015.8 in West 37.0 mph 37.0 mph 40 % 0.0 in 756.0 W/m2 CLR
11:27 18.3 °F 4.8 °F 1015.8 in WNW 37.0 mph 37.0 mph 41 % 0.0 in 761.0 W/m2 CLR
11:32 18.6 °F 4.7 °F 1015.8 in WNW 42.6 mph 42.6 mph 40 % 0.0 in 779.0 W/m2 CLR
11:37 18.6 °F 4.7 °F 1015.8 in NW 38.9 mph 38.9 mph 40 % 0.0 in 788.0 W/m2 CLR
11:42 18.8 °F 4.2 °F 1015.8 in WNW 46.3 mph 46.3 mph 38 % 0.0 in 795.0 W/m2 CLR
11:47 19.1 °F 4.0 °F 1015.8 in WNW 40.7 mph 40.7 mph 37 % 0.0 in 807.0 W/m2 CLR
11:52 18.9 °F 4.3 °F 1015.8 in WNW 38.9 mph 38.9 mph 38 % 0.0 in 817.0 W/m2 CLR
11:57 19.1 °F 3.7 °F 1015.5 in NW 33.8 mph 36.4 mph 36 % 0.0 in 828.0 W/m2 CLR
12:02 19.3 °F 4.3 °F 1015.8 in NNW 27.8 mph 27.8 mph 37 % 0.0 in 837.0 W/m2 CLR
12:07 19.4 °F 3.9 °F 1015.5 in NW 31.5 mph 31.5 mph 36 % 0.0 in 846.0 W/m2 CLR
12:12 19.5 °F 3.6 °F 1015.5 in West 37.0 mph 37.0 mph 35 % 0.0 in 854.0 W/m2 CLR
12:17 19.6 °F 3.7 °F 1015.8 in WNW 31.5 mph 31.5 mph 35 % 0.0 in 861.0 W/m2 CLR
12:22 19.8 °F 4.3 °F 1015.8 in NNW 31.5 mph 31.5 mph 36 % 0.0 in 872.0 W/m2 CLR
12:27 20.0 °F 3.2 °F 1015.8 in NW 33.3 mph 33.3 mph 33 % 0.0 in 879.0 W/m2 CLR
12:32 19.9 °F 4.4 °F 1015.8 in WNW 27.8 mph 27.8 mph 36 % 0.0 in 882.0 W/m2 CLR
12:37 20.1 °F 4.2 °F 1015.8 in NW 31.5 mph 31.5 mph 35 % 0.0 in 886.0 W/m2 CLR
12:42 20.2 °F 4.3 °F 1015.8 in NW 31.5 mph 31.5 mph 35 % 0.0 in 889.0 W/m2 CLR
12:47 20.3 °F 4.3 °F 1015.8 in NNW 27.8 mph 27.8 mph 35 % 0.0 in 898.0 W/m2 CLR
12:52 20.6 °F 4.2 °F 1015.8 in NW 25.9 mph 25.9 mph 34 % 0.0 in 902.0 W/m2 CLR
12:57 21.2 °F 4.3 °F 1015.8 in NNW 30.6 mph 30.6 mph 33 % 0.0 in 911.0 W/m2 CLR
13:02 20.8 °F 3.9 °F 1015.8 in North 35.4 mph 35.4 mph 33 % 0.0 in 918.0 W/m2 CLR
13:05 20.7 °F 3.8 °F 1015.8 in North 25.9 mph 25.9 mph 33 % 0.0 in 919.0 W/m2 CLR
13:10 20.7 °F 3.8 °F 1015.8 in WNW 14.8 mph 14.8 mph 33 % 0.0 in 923.0 W/m2 CLR
13:15 20.8 °F 3.1 °F 1015.8 in NNW 29.6 mph 29.6 mph 31 % 0.0 in 925.0 W/m2 CLR
13:20 20.9 °F 3.6 °F 1015.8 in WNW 25.9 mph 25.9 mph 32 % 0.0 in 933.0 W/m2 CLR
13:25 20.8 °F 3.5 °F 1015.8 in NNW 35.2 mph 35.2 mph 32 % 0.0 in 928.0 W/m2 CLR
13:30 21.1 °F 3.3 °F 1015.8 in West 24.1 mph 24.1 mph 31 % 0.0 in 935.0 W/m2 CLR
13:40 21.2 °F 2.9 °F 1015.8 in NW 33.3 mph 33.3 mph 30 % 0.0 in 940.0 W/m2 CLR
13:45 21.5 °F 3.2 °F 1015.8 in NNW 25.9 mph 25.9 mph 30 % 0.0 in 942.0 W/m2 CLR
13:50 21.5 °F 3.2 °F 1015.8 in WNW 24.1 mph 24.1 mph 30 % 0.0 in 942.0 W/m2 CLR
13:55 21.7 °F 2.4 °F 1015.8 in North 25.9 mph 25.9 mph 28 % 0.0 in 944.0 W/m2 CLR
14:00 21.7 °F 2.4 °F 1015.8 in NW 29.6 mph 29.6 mph 28 % 0.0 in 942.0 W/m2 CLR
14:05 21.6 °F 2.8 °F 1015.8 in West 27.4 mph 27.4 mph 29 % 0.0 in 944.0 W/m2 CLR
14:10 21.7 °F 2.9 °F 1015.8 in WNW 20.4 mph 20.4 mph 29 % 0.0 in 939.0 W/m2 CLR
14:15 21.7 °F 3.3 °F 1015.8 in WNW 22.2 mph 22.2 mph 30 % 0.0 in 940.0 W/m2 CLR
14:20 21.9 °F 3.6 °F 1015.8 in WNW 19.3 mph 19.3 mph 30 % 0.0 in 939.0 W/m2 CLR
14:25 22.3 °F 3.4 °F 1015.8 in NNW 27.8 mph 27.8 mph 29 % 0.0 in 935.0 W/m2 CLR
14:30 22.4 °F 2.4 °F 1016.1 in NW 22.2 mph 22.2 mph 27 % 0.0 in 937.0 W/m2 CLR
14:35 22.6 °F 2.1 °F 1015.8 in WNW 19.3 mph 19.3 mph 26 % 0.0 in 937.0 W/m2 CLR
14:40 22.6 °F 2.7 °F 1015.8 in WNW 31.5 mph 31.5 mph 27 % 0.0 in 930.0 W/m2 CLR
14:45 22.8 °F 3.3 °F 1015.8 in WNW 24.1 mph 24.1 mph 28 % 0.0 in 926.0 W/m2 CLR
14:50 22.9 °F 2.9 °F 1015.8 in WNW 31.5 mph 31.5 mph 27 % 0.0 in 925.0 W/m2 CLR
14:55 22.8 °F 1.8 °F 1016.1 in NNW 17.7 mph 17.7 mph 25 % 0.0 in 919.0 W/m2 CLR
15:00 22.9 °F 1.8 °F 1016.1 in NW 27.8 mph 27.8 mph 25 % 0.0 in 914.0 W/m2 CLR
15:05 22.9 °F 1.2 °F 1015.8 in North 22.5 mph 22.5 mph 24 % 0.0 in 911.0 W/m2 CLR
15:10 22.9 °F 1.8 °F 1016.1 in NW 33.3 mph 33.3 mph 25 % 0.0 in 905.0 W/m2 CLR
15:15 23.1 °F 2.5 °F 1016.1 in West 24.1 mph 24.1 mph 26 % 0.0 in 865.0 W/m2 CLR
15:20 23.0 °F 2.4 °F 1016.1 in WNW 19.3 mph 19.3 mph 26 % 0.0 in 889.0 W/m2 CLR
15:25 23.1 °F 2.6 °F 1016.1 in NNW 20.4 mph 20.4 mph 26 % 0.0 in 881.0 W/m2 CLR
15:30 23.3 °F 2.1 °F 1015.8 in WNW 18.5 mph 18.5 mph 25 % 0.0 in 863.0 W/m2 CLR
15:35 23.6 °F 2.4 °F 1015.8 in NNE 18.5 mph 18.5 mph 25 % 0.0 in 861.0 W/m2 CLR
15:40 23.4 °F 1.1 °F 1015.8 in NNW 27.8 mph 27.8 mph 23 % 0.0 in 872.0 W/m2 CLR
15:45 23.1 °F 1.4 °F 1016.1 in SW 16.7 mph 16.7 mph 24 % 0.0 in 752.0 W/m2 CLR
15:50 23.3 °F 1.6 °F 1016.1 in NW 22.2 mph 22.2 mph 24 % 0.0 in 870.0 W/m2 CLR
15:55 23.4 °F 2.2 °F 1016.1 in NNW 22.2 mph 22.2 mph 25 % 0.0 in 854.0 W/m2 CLR
16:00 23.6 °F 2.4 °F 1016.1 in NNW 25.9 mph 25.9 mph 25 % 0.0 in 717.0 W/m2 CLR
16:05 23.8 °F 2.0 °F 1016.1 in North 32.2 mph 32.2 mph 24 % 0.0 in 795.0 W/m2 CLR
16:10 23.6 °F 1.8 °F 1015.8 in NNW 7.4 mph 7.4 mph 24 % 0.0 in 821.0 W/m2 CLR
16:15 23.9 °F 2.1 °F 1016.1 in NW 31.5 mph 31.5 mph 24 % 0.0 in 805.0 W/m2 CLR
16:20 23.7 °F 1.3 °F 1015.8 in WNW 22.2 mph 22.2 mph 23 % 0.0 in 795.0 W/m2 CLR
16:25 23.8 °F 1.4 °F 1015.8 in West 31.5 mph 31.5 mph 23 % 0.0 in 779.0 W/m2 CLR
16:30 23.4 °F 1.7 °F 1015.8 in WNW 18.5 mph 18.5 mph 24 % 0.0 in 749.0 W/m2 CLR
16:35 23.7 °F 1.9 °F 1015.8 in WNW 24.1 mph 24.1 mph 24 % 0.0 in 756.0 W/m2 CLR
16:40 24.0 °F 2.2 °F 1015.8 in WNW 27.8 mph 27.8 mph 24 % 0.0 in 601.0 W/m2 CLR
16:45 24.2 °F 2.3 °F 1015.8 in NW 20.4 mph 20.4 mph 24 % 0.0 in 717.0 W/m2 CLR
16:50 24.4 °F 1.9 °F 1015.8 in NNW 16.1 mph 16.1 mph 23 % 0.0 in 715.0 W/m2 CLR
16:55 24.7 °F 2.1 °F 1015.8 in NW 29.6 mph 29.6 mph 23 % 0.0 in 689.0 W/m2 CLR
17:00 24.7 °F 2.2 °F 1015.8 in NNW 25.9 mph 25.9 mph 23 % 0.0 in 691.0 W/m2 CLR
17:05 24.3 °F 1.8 °F 1015.8 in NNW 31.5 mph 31.5 mph 23 % 0.0 in 673.0 W/m2 CLR
17:10 24.3 °F 1.8 °F 1015.8 in WNW 25.9 mph 25.9 mph 23 % 0.0 in 664.0 W/m2 CLR
17:16 24.6 °F 1.4 °F 1015.8 in WNW 29.6 mph 29.6 mph 22 % 0.0 in 652.0 W/m2 CLR
17:21 24.1 °F 2.8 °F 1015.8 in NNW 19.3 mph 19.3 mph 25 % 0.0 in 635.0 W/m2 CLR
17:26 24.0 °F 1.6 °F 1015.8 in NW 29.6 mph 29.6 mph 23 % 0.0 in 624.0 W/m2 CLR
17:31 24.2 °F 1.7 °F 1015.8 in West 22.5 mph 22.5 mph 23 % 0.0 in 612.0 W/m2 CLR
17:36 24.2 °F 2.3 °F 1015.8 in WNW 25.9 mph 25.9 mph 24 % 0.0 in 592.0 W/m2 CLR
17:41 24.2 °F 2.9 °F 1015.5 in NW 18.5 mph 18.5 mph 25 % 0.0 in 577.0 W/m2 CLR
17:44 24.3 °F 3.1 °F 1015.8 in WNW 22.2 mph 22.2 mph 25 % 0.0 in 566.0 W/m2 CLR
17:49 24.3 °F 2.4 °F 1015.8 in NW 31.5 mph 31.5 mph 24 % 0.0 in 554.0 W/m2 CLR
17:55 24.4 °F 2.5 °F 1015.8 in WNW 18.5 mph 18.5 mph 24 % 0.0 in 540.0 W/m2 CLR
18:00 24.3 °F 1.8 °F 1015.8 in NNW 29.6 mph 29.6 mph 23 % 0.0 in 519.0 W/m2 CLR
18:05 24.2 °F 2.3 °F 1015.8 in WNW 18.5 mph 18.5 mph 24 % 0.0 in 506.0 W/m2 CLR
18:10 24.6 °F 2.1 °F 1015.8 in NNW 24.1 mph 24.1 mph 23 % 0.0 in 492.0 W/m2 CLR
18:15 24.5 °F 2.0 °F 1015.8 in West 20.4 mph 20.4 mph 23 % 0.0 in 476.0 W/m2 CLR
18:20 24.6 °F 1.4 °F 1015.8 in NW 24.1 mph 24.1 mph 22 % 0.0 in 459.0 W/m2 CLR
18:25 24.3 °F 1.8 °F 1015.8 in NW 24.1 mph 24.1 mph 23 % 0.0 in 439.0 W/m2 CLR
18:30 24.2 °F 1.8 °F 1015.8 in WNW 13.0 mph 13.0 mph 23 % 0.0 in 425.0 W/m2 CLR
18:35 24.4 °F 2.5 °F 1015.8 in NNW 27.8 mph 27.8 mph 24 % 0.0 in 408.0 W/m2 CLR
18:40 24.2 °F 2.9 °F 1015.8 in NNE 20.4 mph 20.4 mph 25 % 0.0 in 390.0 W/m2 CLR
18:45 24.3 °F 3.0 °F 1015.8 in NNW 3.7 mph 3.7 mph 25 % 0.0 in 373.0 W/m2 CLR
18:50 24.4 °F 1.9 °F 1015.8 in WNW 22.2 mph 22.2 mph 23 % 0.0 in 357.0 W/m2 CLR
18:55 24.4 °F 1.9 °F 1015.8 in NNW 17.7 mph 17.7 mph 23 % 0.0 in 339.0 W/m2 CLR
19:00 24.3 °F 1.2 °F 1015.8 in WNW 14.8 mph 14.8 mph 22 % 0.0 in 325.0 W/m2 CLR
19:05 24.3 °F 1.8 °F 1015.8 in NNW 13.0 mph 13.5 mph 23 % 0.0 in 306.0 W/m2 CLR
19:10 24.4 °F 2.5 °F 1015.8 in NW 18.5 mph 18.5 mph 24 % 0.0 in 290.0 W/m2 CLR
19:15 24.3 °F 2.4 °F 1015.8 in WNW 1.9 mph 1.9 mph 24 % 0.0 in 274.0 W/m2 CLR
19:20 24.1 °F 1.7 °F 1015.8 in NNW 29.6 mph 29.6 mph 23 % 0.0 in 258.0 W/m2 CLR
19:25 23.9 °F 1.5 °F 1015.8 in WNW 25.9 mph 25.9 mph 23 % 0.0 in 241.0 W/m2 CLR
19:30 23.9 °F 1.5 °F 1015.8 in NW 16.1 mph 16.1 mph 23 % 0.0 in 220.0 W/m2 CLR
19:35 23.9 °F 2.7 °F 1015.8 in NNW 14.8 mph 14.8 mph 25 % 0.0 in 200.0 W/m2 CLR
19:40 24.0 °F 2.7 °F 1015.8 in North 17.7 mph 17.7 mph 25 % 0.0 in 181.0 W/m2 CLR
19:45 23.7 °F 3.1 °F 1015.8 in North 18.5 mph 18.5 mph 26 % 0.0 in 163.0 W/m2 CLR
19:50 23.6 °F 2.9 °F 1015.8 in NNE 11.3 mph 14.2 mph 26 % 0.0 in 142.0 W/m2 CLR
19:55 23.5 °F 3.4 °F 1015.8 in NNE 12.9 mph 12.9 mph 27 % 0.0 in 125.0 W/m2 CLR
20:00 23.4 °F 2.8 °F 1015.8 in North 13.0 mph 13.0 mph 26 % 0.0 in 109.0 W/m2 CLR
20:05 23.4 °F 3.3 °F 1015.8 in North 11.3 mph 11.3 mph 27 % 0.0 in 93.0 W/m2 CLR
20:10 23.3 °F 3.3 °F 1015.8 in NNW 3.7 mph 3.7 mph 27 % 0.0 in 79.0 W/m2 FEW
20:15 23.3 °F 2.7 °F 1016.1 in NNW 4.8 mph 4.8 mph 26 % 0.0 in 63.0 W/m2 SCT
20:20 23.1 °F 3.1 °F 1016.1 in NNW 14.8 mph 14.8 mph 27 % 0.0 in 44.0 W/m2 SCT
20:25 22.8 °F 3.3 °F 1016.1 in North 3.7 mph 3.7 mph 28 % 0.0 in 37.0 W/m2 BKN
20:30 22.7 °F 3.3 °F 1016.1 in NNW 1.9 mph 1.9 mph 28 % 0.0 in 28.0 W/m2 BKN
20:35 22.5 °F 3.6 °F 1016.5 in Calm     29 % 0.0 in 18.0 W/m2 BKN
20:40 22.4 °F 3.4 °F 1016.5 in Calm     29 % 0.0 in 14.0 W/m2 BKN
20:45 22.2 °F 3.3 °F 1016.5 in Calm     29 % 0.0 in 12.0 W/m2 BKN
20:50 21.8 °F 3.4 °F 1016.5 in Calm     30 % 0.0 in 11.0 W/m2 BKN
20:55 21.6 °F 3.7 °F 1016.5 in Calm     31 % 0.0 in 7.0 W/m2 BKN
21:00 21.4 °F 3.6 °F 1016.5 in Calm     31 % 0.0 in 5.0 W/m2 OVC
21:05 21.1 °F 3.3 °F 1016.8 in Calm     31 % 0.0 in 0.0 W/m2 OVC
21:10 20.8 °F 3.4 °F 1016.8 in Calm     32 % 0.0 in 0.0 W/m2 OVC
21:15 20.6 °F 3.3 °F 1016.8 in Calm     32 % 0.0 in 0.0 W/m2 CLR
21:20 20.5 °F 3.7 °F 1016.8 in Calm     33 % 0.0 in 0.0 W/m2 CLR
21:25 20.3 °F 3.5 °F 1016.8 in Calm     33 % 0.0 in 0.0 W/m2 CLR
21:30 19.8 °F 3.9 °F 1016.8 in Calm     35 % 0.0 in 0.0 W/m2 CLR
21:35 19.3 °F 3.4 °F 1017.2 in Calm     35 % 0.0 in 0.0 W/m2 CLR
21:40 18.9 °F 3.9 °F 1017.2 in Calm     37 % 0.0 in 0.0 W/m2 CLR
21:45 18.6 °F 3.9 °F 1017.5 in Calm     38 % 0.0 in 0.0 W/m2 CLR
21:50 18.3 °F 3.8 °F 1017.5 in Calm     38 % 0.0 in 0.0 W/m2 CLR
21:55 18.2 °F 3.6 °F 1017.5 in Calm     38 % 0.0 in 0.0 W/m2 CLR
22:00 17.9 °F 3.4 °F 1017.5 in Calm     38 % 0.0 in 0.0 W/m2 CLR
22:05 17.7 °F 3.6 °F 1017.8 in Calm     39 % 0.0 in 0.0 W/m2 CLR
22:10 17.6 °F 3.8 °F 1017.8 in Calm     40 % 0.0 in 0.0 W/m2 CLR
22:15 17.3 °F 3.9 °F 1017.8 in Calm     41 % 0.0 in 0.0 W/m2 CLR
22:20 16.8 °F 3.8 °F 1018.2 in Calm     42 % 0.0 in 0.0 W/m2 CLR
22:25 16.3 °F 3.7 °F 1018.2 in Calm     43 % 0.0 in 0.0 W/m2 CLR
22:30 15.9 °F 3.4 °F 1018.2 in Calm     43 % 0.0 in 0.0 W/m2 CLR
22:35 15.7 °F 3.5 °F 1018.5 in Calm     44 % 0.0 in 0.0 W/m2 CLR
22:40 15.5 °F 3.3 °F 1018.5 in Calm     44 % 0.0 in 0.0 W/m2 CLR
22:45 15.2 °F 3.6 °F 1018.5 in Calm     46 % 0.0 in 0.0 W/m2 CLR
22:50 14.7 °F 3.5 °F 1018.5 in Calm     47 % 0.0 in 0.0 W/m2 CLR
22:55 14.6 °F 3.4 °F 1018.8 in Calm     47 % 0.0 in 0.0 W/m2 CLR
23:00 14.5 °F 3.3 °F 1018.8 in Calm     47 % 0.0 in 0.0 W/m2 CLR
23:05 14.5 °F 3.0 °F 1019.2 in Calm     46 % 0.0 in 0.0 W/m2 CLR
23:10 14.4 °F 2.9 °F 1019.2 in Calm     46 % 0.0 in 0.0 W/m2 CLR
23:15 14.4 °F 2.9 °F 1019.2 in Calm     46 % 0.0 in 0.0 W/m2 CLR
23:20 14.2 °F 3.1 °F 1019.2 in Calm     47 % 0.0 in 0.0 W/m2 CLR
23:25 14.2 °F 3.1 °F 1019.2 in Calm     47 % 0.0 in 0.0 W/m2 CLR
23:30 14.1 °F 3.3 °F 1019.5 in Calm     48 % 0.0 in 0.0 W/m2 CLR
23:35 13.7 °F 3.2 °F 1019.5 in Calm     49 % 0.0 in 0.0 W/m2 CLR
23:40 13.4 °F 2.9 °F 1019.5 in Calm     49 % 0.0 in 0.0 W/m2 CLR
23:45 13.3 °F 3.1 °F 1019.5 in Calm     50 % 0.0 in 0.0 W/m2 CLR
23:51 13.3 °F 3.1 °F 1019.5 in Calm     50 % 0.0 in 0.0 W/m2 CLR
23:56 13.2 °F 3.3 °F 1019.5 in Calm     51 % 0.0 in 0.0 W/m2 CLR
Lo Temps de Massalio
Compliments of Weather Underground - 1.25 mb